createdAt,value
2022-12-09T00:01:06.790Z,101043.63
2022-12-09T00:03:55.261Z,101047.38
2022-12-09T00:06:40.681Z,101043.94
2022-12-09T00:09:26.073Z,101044.66
2022-12-09T00:12:11.579Z,101044.59
2022-12-09T00:14:57.178Z,101049.34
2022-12-09T00:17:42.489Z,101053.53
2022-12-09T00:20:27.690Z,101050.84
2022-12-09T00:23:13.117Z,101047.38
2022-12-09T00:25:58.955Z,101044.75
2022-12-09T00:28:45.011Z,101043.94
2022-12-09T00:31:34.261Z,101039.47
2022-12-09T00:34:19.926Z,101049.59
2022-12-09T00:37:05.591Z,101049.47
2022-12-09T00:39:51.462Z,101048.72
2022-12-09T00:42:37.182Z,101044.41
2022-12-09T00:45:22.989Z,101046.03
2022-12-09T00:48:08.705Z,101037.72
2022-12-09T00:50:54.113Z,101038.03
2022-12-09T00:53:39.764Z,101044.03
2022-12-09T00:56:28.300Z,101054.41
2022-12-09T00:59:14.324Z,101051.25
2022-12-09T01:02:00.246Z,101044.47
2022-12-09T01:04:46.121Z,101059.09
2022-12-09T01:07:32.690Z,101057.56
2022-12-09T01:10:18.436Z,101056.66
2022-12-09T01:13:04.472Z,101054.72
2022-12-09T01:15:50.775Z,101051.25
2022-12-09T01:18:36.523Z,101044.88
2022-12-09T01:21:22.177Z,101044.88
2022-12-09T01:24:11.600Z,101035.31
2022-12-09T01:26:57.098Z,101035.00
2022-12-09T01:29:42.439Z,101027.03
2022-12-09T01:32:29.265Z,101026.84
2022-12-09T01:35:15.536Z,101023.31
2022-12-09T01:38:01.112Z,101023.03
2022-12-09T01:40:47.682Z,101022.09
2022-12-09T01:43:33.209Z,101022.75
2022-12-09T01:46:18.670Z,101013.94
2022-12-09T01:49:06.677Z,101014.31
2022-12-09T01:52:02.831Z,101020.84
2022-12-09T01:54:52.196Z,101025.72
2022-12-09T01:57:39.251Z,101017.25
2022-12-09T02:00:25.731Z,101016.44
2022-12-09T02:03:11.831Z,101025.97
2022-12-09T02:05:57.311Z,101023.47
2022-12-09T02:08:44.048Z,101024.28
2022-12-09T02:11:38.115Z,101028.53
2022-12-09T02:14:42.988Z,101032.84
2022-12-09T02:17:44.736Z,101027.72
2022-12-09T02:20:58.886Z,101036.13
2022-12-09T02:23:54.160Z,101035.19
2022-12-09T02:27:01.201Z,101042.00
2022-12-09T02:30:09.166Z,101041.84
2022-12-09T02:33:44.357Z,101040.81
2022-12-09T02:36:42.513Z,101041.09
2022-12-09T02:39:37.215Z,101038.59
2022-12-09T02:42:27.821Z,101046.16
2022-12-09T02:45:16.884Z,101041.75
2022-12-09T02:48:07.947Z,101037.75
2022-12-09T02:50:54.648Z,101034.25
2022-12-09T02:53:42.115Z,101037.38
2022-12-09T02:56:28.824Z,101038.16
2022-12-09T02:59:14.700Z,101033.91
2022-12-09T03:02:26.373Z,101031.94
2022-12-09T03:05:25.043Z,101021.47
2022-12-09T03:08:21.730Z,101025.50
2022-12-09T03:11:07.117Z,101019.31
2022-12-09T03:14:00.152Z,101023.34
2022-12-09T03:17:03.329Z,101017.03
2022-12-09T03:19:59.050Z,101016.19
2022-12-09T03:22:48.264Z,101017.69
2022-12-09T03:25:40.877Z,101020.03
2022-12-09T03:28:49.247Z,101014.75
2022-12-09T03:31:38.266Z,101009.41
2022-12-09T03:34:32.259Z,101005.88
2022-12-09T03:37:20.279Z,101006.44
2022-12-09T03:40:13.921Z,101007.16
2022-12-09T03:43:12.868Z,101007.91
2022-12-09T03:45:58.525Z,101003.44
2022-12-09T03:48:44.764Z,100995.75
2022-12-09T03:52:30.788Z,100999.81
2022-12-09T03:55:16.248Z,101003.91
2022-12-09T03:58:05.087Z,101003.69
2022-12-09T04:00:51.426Z,101005.97
2022-12-09T04:03:38.958Z,100998.06
2022-12-09T04:06:25.297Z,100994.50
2022-12-09T04:09:12.108Z,100995.91
2022-12-09T04:11:57.524Z,101003.53
2022-12-09T04:14:43.233Z,100995.69
2022-12-09T04:17:28.974Z,100998.00
2022-12-09T04:20:15.625Z,100994.47
2022-12-09T04:23:01.271Z,100985.06
2022-12-09T04:25:46.889Z,100989.22
2022-12-09T04:28:32.513Z,100995.03
2022-12-09T04:31:19.869Z,100985.47
2022-12-09T04:34:09.246Z,100986.34
2022-12-09T04:36:55.788Z,100990.38
2022-12-09T04:39:41.915Z,100989.44
2022-12-09T04:42:29.789Z,100994.31
2022-12-09T04:45:15.592Z,100989.13
2022-12-09T04:48:01.346Z,100986.22
2022-12-09T04:50:46.905Z,100984.41
2022-12-09T04:53:32.822Z,100981.50
2022-12-09T04:56:20.732Z,100983.03
2022-12-09T04:59:06.650Z,100977.75
2022-12-09T05:01:53.464Z,100980.84
2022-12-09T05:04:39.370Z,100985.88
2022-12-09T05:07:25.430Z,100983.06
2022-12-09T05:10:11.751Z,100976.22
2022-12-09T05:12:57.799Z,100971.88
2022-12-09T05:15:43.636Z,100977.69
2022-12-09T05:18:29.964Z,100977.63
2022-12-09T05:21:20.504Z,100976.59
2022-12-09T05:24:06.983Z,100981.63
2022-12-09T05:26:53.056Z,100984.09
2022-12-09T05:29:39.043Z,100988.28
2022-12-09T05:32:24.757Z,100977.91
2022-12-09T05:35:11.568Z,100976.16
2022-12-09T05:37:57.806Z,100973.50
2022-12-09T05:40:43.225Z,100974.25
2022-12-09T05:43:28.932Z,100965.50
2022-12-09T05:46:15.787Z,100965.44
2022-12-09T05:49:02.126Z,100973.00
2022-12-09T05:51:47.832Z,100963.41
2022-12-09T05:54:33.947Z,100962.56
2022-12-09T05:57:19.868Z,100967.56
2022-12-09T06:00:07.792Z,100961.47
2022-12-09T06:02:57.648Z,100964.13
2022-12-09T06:05:43.498Z,100962.38
2022-12-09T06:08:29.185Z,100960.63
2022-12-09T06:11:18.052Z,100961.31
2022-12-09T06:14:04.849Z,100957.09
2022-12-09T06:16:51.088Z,100957.09
2022-12-09T06:19:36.834Z,100949.25
2022-12-09T06:22:22.501Z,100950.84
2022-12-09T06:25:08.976Z,100947.41
2022-12-09T06:27:54.592Z,100945.66
2022-12-09T06:30:41.374Z,100949.78
2022-12-09T06:33:53.731Z,100944.59
2022-12-09T06:36:32.973Z,100950.53
2022-12-09T06:39:18.887Z,100953.78
2022-12-09T06:42:04.502Z,100950.97
2022-12-09T06:44:50.079Z,100954.94
2022-12-09T06:47:35.913Z,100953.97
2022-12-09T06:50:22.089Z,100949.66
2022-12-09T06:53:07.851Z,100941.00
2022-12-09T06:55:53.622Z,100956.25
2022-12-09T06:58:40.584Z,100956.97
2022-12-09T07:01:26.757Z,100949.22
2022-12-09T07:04:14.914Z,100955.97
2022-12-09T07:07:00.737Z,100950.72
2022-12-09T07:09:47.047Z,100954.94
2022-12-09T07:12:32.847Z,100955.81
2022-12-09T07:15:18.775Z,100960.06
2022-12-09T07:18:04.719Z,100963.38
2022-12-09T07:20:50.618Z,100963.38
2022-12-09T07:23:37.088Z,100956.50
2022-12-09T07:26:23.487Z,100951.41
2022-12-09T07:29:09.305Z,100946.38
2022-12-09T07:31:54.984Z,100950.72
2022-12-09T07:34:40.727Z,100942.97
2022-12-09T07:37:26.398Z,100944.66
2022-12-09T07:40:12.489Z,100949.75
2022-12-09T07:42:59.895Z,100944.56
2022-12-09T07:45:46.379Z,100955.56
2022-12-09T07:48:32.070Z,100959.06
2022-12-09T07:51:18.021Z,100950.63
2022-12-09T07:54:04.250Z,100949.66
2022-12-09T07:56:50.698Z,100941.19
2022-12-09T07:59:36.627Z,100943.75
2022-12-09T08:02:22.696Z,100939.47
2022-12-09T08:05:09.312Z,100951.25
2022-12-09T08:07:56.146Z,100945.19
2022-12-09T08:10:44.031Z,100939.19
2022-12-09T08:13:29.867Z,100950.97
2022-12-09T08:16:20.411Z,100950.00
2022-12-09T08:19:06.248Z,100939.00
2022-12-09T08:21:54.808Z,100941.66
2022-12-09T08:24:41.051Z,100940.00
2022-12-09T08:27:26.769Z,100947.56
2022-12-09T08:30:13.104Z,100951.69
2022-12-09T08:32:59.992Z,100956.69
2022-12-09T08:35:45.824Z,100950.63
2022-12-09T08:38:32.052Z,100946.66
2022-12-09T08:41:36.896Z,100949.22
2022-12-09T08:44:24.121Z,100943.31
2022-12-09T08:47:10.091Z,100945.00
2022-12-09T08:49:56.125Z,100944.09
2022-12-09T08:52:43.116Z,100947.66
2022-12-09T08:55:28.604Z,100955.38
2022-12-09T08:58:14.799Z,100945.09
2022-12-09T09:01:00.671Z,100951.16
2022-12-09T09:03:48.118Z,100948.00
2022-12-09T09:06:34.497Z,100945.53
2022-12-09T09:09:21.736Z,100938.72
2022-12-09T09:12:08.184Z,100940.41
2022-12-09T09:14:54.923Z,100934.44
2022-12-09T09:17:40.930Z,100937.78
2022-12-09T09:20:28.918Z,100940.59
2022-12-09T09:23:15.788Z,100939.88
2022-12-09T09:26:01.256Z,100943.22
2022-12-09T09:28:47.472Z,100943.22
2022-12-09T09:31:34.441Z,100938.13
2022-12-09T09:34:21.707Z,100943.31
2022-12-09T09:37:08.171Z,100941.66
2022-12-09T09:39:54.062Z,100943.41
2022-12-09T09:42:48.500Z,100940.84
2022-12-09T09:45:33.996Z,100939.09
2022-12-09T09:48:24.541Z,100942.63
2022-12-09T09:51:19.326Z,100947.81
2022-12-09T09:54:08.639Z,100943.41
2022-12-09T09:57:16.626Z,100942.69
2022-12-09T10:00:37.113Z,100955.53
2022-12-09T10:03:52.702Z,100954.59
2022-12-09T10:06:51.981Z,100951.88
2022-12-09T10:10:13.563Z,100948.16
2022-12-09T10:13:21.120Z,100939.81
2022-12-09T10:16:13.766Z,100934.69
2022-12-09T10:19:08.167Z,100942.97
2022-12-09T10:21:55.688Z,100939.63
2022-12-09T10:24:49.554Z,100938.66
2022-12-09T10:27:39.772Z,100935.47
2022-12-09T10:30:28.913Z,100928.97
2022-12-09T10:33:29.607Z,100946.22
2022-12-09T10:36:33.783Z,100943.94
2022-12-09T10:39:22.722Z,100940.84
2022-12-09T10:42:34.642Z,100948.66
2022-12-09T10:45:21.801Z,100942.13
2022-12-09T10:48:19.781Z,100937.19
2022-12-09T10:51:18.681Z,100943.63
2022-12-09T10:54:27.691Z,100944.75
2022-12-09T10:57:13.511Z,100935.75
2022-12-09T11:00:08.686Z,100931.00
2022-12-09T11:02:56.778Z,100930.44
2022-12-09T11:05:43.076Z,100938.44
2022-12-09T11:08:30.250Z,100926.84
2022-12-09T11:11:16.296Z,100938.28
2022-12-09T11:14:02.798Z,100931.75
2022-12-09T11:16:51.974Z,100928.81
2022-12-09T11:19:39.862Z,100929.28
2022-12-09T11:22:40.264Z,100929.69
2022-12-09T11:25:30.473Z,100932.78
2022-12-09T11:28:15.923Z,100934.94
2022-12-09T11:34:23.425Z,100936.84
2022-12-09T11:37:11.366Z,100933.00
2022-12-09T11:39:56.797Z,100933.44
2022-12-09T11:42:42.504Z,100933.13
2022-12-09T11:45:38.688Z,100936.84
2022-12-09T11:48:36.047Z,100931.94
2022-12-09T11:51:30.035Z,100927.78
2022-12-09T11:54:24.791Z,100926.91
2022-12-09T11:57:27.597Z,100912.44
2022-12-09T12:00:18.457Z,100915.78
2022-12-09T12:03:13.132Z,100917.63
2022-12-09T12:06:02.748Z,100916.84
2022-12-09T12:08:54.705Z,100913.53
2022-12-09T12:12:23.053Z,100915.44
2022-12-09T12:15:22.744Z,100915.22
2022-12-09T12:18:15.878Z,100907.38
2022-12-09T12:21:13.488Z,100913.94
2022-12-09T12:24:26.750Z,100908.81
2022-12-09T12:27:20.693Z,100901.72
2022-12-09T12:30:10.915Z,100907.53
2022-12-09T12:34:00.425Z,100904.97
2022-12-09T12:37:19.210Z,100900.22
2022-12-09T12:40:29.633Z,100902.41
2022-12-09T12:44:15.403Z,100900.00
2022-12-09T12:47:25.939Z,100907.97
2022-12-09T12:50:14.399Z,100901.22
2022-12-09T12:53:21.324Z,100893.31
2022-12-09T12:56:17.073Z,100890.19
2022-12-09T12:59:11.635Z,100884.34
2022-12-09T13:02:15.932Z,100892.44
2022-12-09T13:05:13.745Z,100887.84
2022-12-09T13:08:09.631Z,100888.59
2022-12-09T13:10:58.292Z,100874.91
2022-12-09T13:13:51.363Z,100876.09
2022-12-09T13:16:40.768Z,100868.03
2022-12-09T13:19:38.802Z,100869.13
2022-12-09T13:22:38.389Z,100870.16
2022-12-09T13:25:35.305Z,100860.50
2022-12-09T13:28:33.925Z,100857.84
2022-12-09T13:31:22.859Z,100858.59
2022-12-09T13:34:42.731Z,100858.38
2022-12-09T13:37:31.372Z,100857.88
2022-12-09T13:40:34.942Z,100855.97
2022-12-09T13:43:31.804Z,100852.66
2022-12-09T13:46:23.469Z,100854.56
2022-12-09T13:49:24.050Z,100844.47
2022-12-09T13:52:09.730Z,100840.38
2022-12-09T13:54:56.544Z,100844.78
2022-12-09T13:57:53.390Z,100838.03
2022-12-09T14:00:43.099Z,100845.78
2022-12-09T14:03:35.671Z,100837.97
2022-12-09T14:06:26.580Z,100837.81
2022-12-09T14:09:37.379Z,100840.31
2022-12-09T14:12:25.678Z,100836.78
2022-12-09T14:15:23.294Z,100835.06
2022-12-09T14:18:28.776Z,100835.72
2022-12-09T14:21:33.655Z,100841.47
2022-12-09T14:24:22.242Z,100844.63
2022-12-09T14:27:10.946Z,100847.41
2022-12-09T14:30:00.653Z,100842.53
2022-12-09T14:32:49.285Z,100843.47
2022-12-09T14:35:41.563Z,100843.75
2022-12-09T14:38:37.473Z,100841.09
2022-12-09T14:41:40.569Z,100838.41
2022-12-09T14:44:35.644Z,100836.66
2022-12-09T14:47:31.046Z,100832.09
2022-12-09T14:50:22.685Z,100836.94
2022-12-09T14:53:23.368Z,100838.50
2022-12-09T14:56:17.697Z,100841.13
2022-12-09T14:59:07.576Z,100843.63
2022-12-09T15:02:19.546Z,100841.28
2022-12-09T15:05:16.682Z,100837.09
2022-12-09T15:08:02.099Z,100833.72
2022-12-09T15:10:47.486Z,100835.56
2022-12-09T15:13:34.665Z,100835.50
2022-12-09T15:16:24.741Z,100830.25
2022-12-09T15:19:51.235Z,100838.78
2022-12-09T15:22:30.277Z,100843.31
2022-12-09T15:25:21.128Z,100841.91
2022-12-09T15:28:15.344Z,100837.03
2022-12-09T15:31:05.134Z,100836.06
2022-12-09T15:33:52.975Z,100835.84
2022-12-09T15:36:41.907Z,100840.03
2022-12-09T15:39:31.433Z,100838.19
2022-12-09T15:42:26.094Z,100836.66
2022-12-09T15:45:24.455Z,100838.19
2022-12-09T15:48:17.386Z,100828.69
2022-12-09T15:51:07.445Z,100841.41
2022-12-09T15:54:00.082Z,100833.81
2022-12-09T15:57:07.664Z,100833.16
2022-12-09T15:59:58.224Z,100844.47
2022-12-09T16:02:45.907Z,100839.28
2022-12-09T16:05:31.566Z,100835.56
2022-12-09T16:08:17.352Z,100839.00
2022-12-09T16:11:04.351Z,100836.28
2022-12-09T16:14:00.691Z,100838.78
2022-12-09T16:16:50.432Z,100828.25
2022-12-09T16:19:38.175Z,100835.88
2022-12-09T16:22:31.912Z,100833.38
2022-12-09T16:25:22.122Z,100834.16
2022-12-09T16:28:18.482Z,100837.75
2022-12-09T16:31:16.904Z,100825.69
2022-12-09T16:34:02.637Z,100824.72
2022-12-09T16:36:57.137Z,100830.75
2022-12-09T16:39:43.105Z,100825.69
2022-12-09T16:42:37.932Z,100828.91
2022-12-09T16:45:29.977Z,100834.69
2022-12-09T16:48:17.458Z,100843.38
2022-12-09T16:51:13.829Z,100840.75
2022-12-09T16:54:00.105Z,100835.63
2022-12-09T16:56:46.021Z,100829.72
2022-12-09T16:59:37.620Z,100828.09
2022-12-09T17:02:29.768Z,100829.84
2022-12-09T17:05:15.602Z,100835.75
2022-12-09T17:08:01.056Z,100832.25
2022-12-09T17:10:46.480Z,100834.81
2022-12-09T17:13:31.902Z,100836.66
2022-12-09T17:16:17.883Z,100837.53
2022-12-09T17:19:05.996Z,100834.25
2022-12-09T17:21:52.417Z,100836.09
2022-12-09T17:24:38.047Z,100829.34
2022-12-09T17:27:23.370Z,100835.44
2022-12-09T17:30:09.751Z,100833.66
2022-12-09T17:32:55.536Z,100830.44
2022-12-09T17:35:41.408Z,100831.31
2022-12-09T17:38:29.460Z,100835.44
2022-12-09T17:41:20.042Z,100836.28
2022-12-09T17:44:05.759Z,100832.88
2022-12-09T17:46:51.426Z,100842.13
2022-12-09T17:49:37.111Z,100844.47
2022-12-09T17:52:22.757Z,100846.97
2022-12-09T17:55:09.225Z,100854.88
2022-12-09T17:57:55.071Z,100852.22
2022-12-09T18:00:40.779Z,100845.41
2022-12-09T18:03:53.842Z,100855.72
2022-12-09T18:06:34.796Z,100850.84
2022-12-09T18:09:23.647Z,100853.63
2022-12-09T18:12:09.116Z,100846.88
2022-12-09T18:14:55.416Z,100846.09
2022-12-09T18:17:40.650Z,100851.28
2022-12-09T18:20:26.170Z,100835.91
2022-12-09T18:23:12.216Z,100844.56
2022-12-09T18:25:58.676Z,100848.78
2022-12-09T18:28:44.609Z,100847.78
2022-12-09T18:31:30.222Z,100848.66
2022-12-09T18:34:15.999Z,100843.31
2022-12-09T18:37:02.669Z,100850.94
2022-12-09T18:39:48.223Z,100859.47
2022-12-09T18:42:33.641Z,100857.78
2022-12-09T18:45:19.199Z,100854.22
2022-12-09T18:48:04.800Z,100849.81
2022-12-09T18:50:50.278Z,100848.94
2022-12-09T18:53:35.790Z,100848.88
2022-12-09T18:56:21.402Z,100846.25
2022-12-09T18:59:08.215Z,100851.28
2022-12-09T19:01:54.799Z,100845.28
2022-12-09T19:04:40.541Z,100844.47
2022-12-09T19:07:31.984Z,100837.47
2022-12-09T19:10:18.007Z,100841.13
2022-12-09T19:13:04.927Z,100844.56
2022-12-09T19:15:50.556Z,100845.34
2022-12-09T19:18:36.431Z,100848.94
2022-12-09T19:21:24.085Z,100849.75
2022-12-09T19:24:15.949Z,100843.81
2022-12-09T19:27:01.136Z,100850.53
2022-12-09T19:29:46.613Z,100852.38
2022-12-09T19:32:52.462Z,100856.63
2022-12-09T19:35:37.626Z,100861.97
2022-12-09T19:38:23.622Z,100856.03
2022-12-09T19:41:09.450Z,100851.06
2022-12-09T19:43:56.744Z,100853.84
2022-12-09T19:46:42.409Z,100853.03
2022-12-09T19:49:28.394Z,100856.41
2022-12-09T19:52:14.039Z,100850.41
2022-12-09T19:54:59.636Z,100847.03
2022-12-09T19:57:44.968Z,100848.00
2022-12-09T20:00:30.492Z,100840.97
2022-12-09T20:03:16.278Z,100835.56
2022-12-09T20:06:01.598Z,100839.06
2022-12-09T20:08:47.678Z,100839.06
2022-12-09T20:11:34.622Z,100834.16
2022-12-09T20:14:20.286Z,100830.00
2022-12-09T20:17:06.122Z,100828.25
2022-12-09T20:19:51.740Z,100830.06
2022-12-09T20:22:37.270Z,100830.13
2022-12-09T20:25:22.662Z,100835.25
2022-12-09T20:28:08.488Z,100830.13
2022-12-09T20:30:53.892Z,100831.97
2022-12-09T20:33:40.178Z,100838.03
2022-12-09T20:36:28.184Z,100837.31
2022-12-09T20:39:17.592Z,100833.81
2022-12-09T20:42:03.231Z,100834.00
2022-12-09T20:44:48.739Z,100834.00
2022-12-09T20:47:34.672Z,100834.88
2022-12-09T20:50:20.571Z,100837.44
2022-12-09T20:53:06.387Z,100836.84
2022-12-09T20:55:59.451Z,100839.41
2022-12-09T20:58:46.529Z,100844.53
2022-12-09T21:01:34.296Z,100846.31
2022-12-09T21:04:20.261Z,100835.41
2022-12-09T21:07:06.258Z,100837.13
2022-12-09T21:09:51.576Z,100836.06
2022-12-09T21:12:36.937Z,100840.28
2022-12-09T21:15:23.546Z,100839.41
2022-12-09T21:18:09.753Z,100834.44
2022-12-09T21:20:58.056Z,100834.50
2022-12-09T21:23:44.270Z,100832.66
2022-12-09T21:26:30.012Z,100835.22
2022-12-09T21:29:15.950Z,100838.75
2022-12-09T21:32:02.111Z,100834.34
2022-12-09T21:34:47.702Z,100832.91
2022-12-09T21:37:34.773Z,100843.28
2022-12-09T21:40:20.382Z,100851.09
2022-12-09T21:43:06.823Z,100848.63
2022-12-09T21:45:52.520Z,100853.00
2022-12-09T21:48:38.662Z,100851.19
2022-12-09T21:51:25.181Z,100846.19
2022-12-09T21:54:10.938Z,100837.69
2022-12-09T21:56:56.215Z,100826.72
2022-12-09T21:59:41.566Z,100831.03
2022-12-09T22:02:27.015Z,100828.47
2022-12-09T22:05:12.554Z,100827.72
2022-12-09T22:07:57.943Z,100821.00
2022-12-09T22:10:43.488Z,100824.38
2022-12-09T22:13:29.328Z,100822.72
2022-12-09T22:16:18.610Z,100820.31
2022-12-09T22:19:06.444Z,100825.38
2022-12-09T22:21:52.177Z,100821.88
2022-12-09T22:24:37.624Z,100829.56
2022-12-09T22:27:23.491Z,100823.56
2022-12-09T22:30:09.766Z,100822.53
2022-12-09T22:32:55.209Z,100827.59
2022-12-09T22:35:40.703Z,100824.97
2022-12-09T22:38:27.480Z,100811.06
2022-12-09T22:41:17.971Z,100813.75
2022-12-09T22:44:04.390Z,100811.13
2022-12-09T22:46:50.093Z,100818.59
2022-12-09T22:49:36.450Z,100820.38
2022-12-09T22:52:22.177Z,100820.44
2022-12-09T22:55:08.321Z,100819.41
2022-12-09T22:57:53.666Z,100810.84
2022-12-09T23:00:41.892Z,100823.47
2022-12-09T23:03:27.769Z,100814.75
2022-12-09T23:06:14.712Z,100810.44
2022-12-09T23:09:00.036Z,100801.59
2022-12-09T23:11:45.401Z,100804.53
2022-12-09T23:14:31.080Z,100803.38
2022-12-09T23:17:16.670Z,100801.47
2022-12-09T23:20:01.971Z,100801.31
2022-12-09T23:22:47.610Z,100803.69
2022-12-09T23:25:33.942Z,100795.00
2022-12-09T23:28:19.704Z,100796.50
2022-12-09T23:31:07.277Z,100798.84
2022-12-09T23:33:53.316Z,100793.59
2022-12-09T23:36:41.443Z,100779.78
2022-12-09T23:39:27.257Z,100786.44
2022-12-09T23:42:12.532Z,100787.22
2022-12-09T23:44:57.928Z,100778.63
2022-12-09T23:47:43.192Z,100773.50
2022-12-09T23:50:28.471Z,100771.75
2022-12-09T23:53:13.890Z,100774.28
2022-12-09T23:55:59.210Z,100775.91
2022-12-09T23:58:45.160Z,100773.19
